Time,TemperatureF,DewpointF,PressureIn,WindDirection,WindDirectionDegrees,WindSpeedMPH,WindSpeedGustMPH,Humidity,HourlyPrecipIn,Conditions,Clouds,dailyrainin,SolarRadiationWatts/m^2,SoftwareType,DateUTC
2013-04-06 00:02:00,38.0,29.0,-100.00,ESE,109,4.0,15.0,69,0.00,,,0.43,0.000000,,2013-04-06 06:02:00,
2013-04-06 00:22:00,37.0,29.0,-100.00,SSW,212,2.0,9.0,72,0.00,,,-99.99,0.000000,,2013-04-06 06:22:00,
2013-04-06 00:33:00,37.0,29.0,-100.00,SSW,212,2.0,9.0,72,0.00,,,-99.99,0.000000,,2013-04-06 06:33:00,
2013-04-06 00:43:00,37.0,29.0,-100.00,SSW,212,2.0,9.0,72,0.00,,,-99.99,0.000000,,2013-04-06 06:43:00,
2013-04-06 00:52:00,37.0,29.0,-100.00,SSW,212,2.0,9.0,72,0.00,,,-99.99,0.000000,,2013-04-06 06:52:00,
2013-04-06 01:02:00,37.0,29.0,-100.00,SSW,212,2.0,9.0,72,0.00,,,-99.99,0.000000,,2013-04-06 07:02:00,
2013-04-06 01:33:00,35.0,27.0,-100.00,SSW,202,2.0,10.0,71,0.00,,,0.43,0.000000,,2013-04-06 07:33:00,
2013-04-06 01:52:00,35.0,27.0,-100.00,SSW,202,2.0,10.0,71,0.00,,,0.43,0.000000,,2013-04-06 07:52:00,
2013-04-06 02:02:00,35.0,27.0,-100.00,SSW,202,2.0,10.0,71,0.00,,,0.43,0.000000,,2013-04-06 08:02:00,
2013-04-06 02:32:00,36.0,28.0,-100.00,SSW,205,2.0,11.0,71,0.00,,,0.41,0.000000,,2013-04-06 08:32:00,
2013-04-06 02:42:00,36.0,28.0,-100.00,SSW,205,2.0,11.0,71,0.00,,,0.41,0.000000,,2013-04-06 08:42:00,
2013-04-06 02:52:00,36.0,28.0,-100.00,SSW,205,2.0,11.0,71,0.00,,,0.41,0.000000,,2013-04-06 08:52:00,
2013-04-06 03:02:00,36.0,28.0,-100.00,SSW,205,2.0,11.0,71,0.00,,,0.41,0.000000,,2013-04-06 09:02:00,
2013-04-06 03:33:00,34.0,26.0,-100.00,SSE,152,3.0,8.0,73,0.00,,,-99.99,0.000000,,2013-04-06 09:33:00,
2013-04-06 03:43:00,34.0,26.0,-100.00,SSE,152,3.0,8.0,73,0.00,,,-99.99,0.000000,,2013-04-06 09:43:00,
2013-04-06 03:53:00,34.0,26.0,-100.00,SSE,152,3.0,8.0,73,0.00,,,-99.99,0.000000,,2013-04-06 09:53:00,
2013-04-06 04:02:00,34.0,26.0,-100.00,SSE,152,3.0,8.0,73,0.00,,,-99.99,0.000000,,2013-04-06 10:02:00,
2013-04-06 04:23:00,36.0,27.0,-100.00,SW,219,2.0,8.0,70,0.00,,,0.26,0.000000,,2013-04-06 10:23:00,
2013-04-06 04:33:00,36.0,27.0,-100.00,SW,219,2.0,8.0,70,0.00,,,0.26,0.000000,,2013-04-06 10:33:00,
2013-04-06 04:43:00,36.0,27.0,-100.00,SW,219,2.0,8.0,70,0.00,,,0.26,0.000000,,2013-04-06 10:43:00,
2013-04-06 04:53:00,36.0,27.0,-100.00,SW,219,2.0,8.0,70,0.00,,,0.26,0.000000,,2013-04-06 10:53:00,
2013-04-06 05:02:00,36.0,27.0,-100.00,SW,219,2.0,8.0,70,0.00,,,0.26,0.000000,,2013-04-06 11:02:00,
2013-04-06 05:33:00,35.0,27.0,-100.00,SE,136,2.0,9.0,71,0.00,,,0.14,0.000000,,2013-04-06 11:33:00,
2013-04-06 05:43:00,35.0,27.0,-100.00,SE,136,2.0,9.0,71,0.00,,,0.14,0.000000,,2013-04-06 11:43:00,
2013-04-06 05:52:00,35.0,27.0,-100.00,SE,136,2.0,9.0,71,0.00,,,0.14,0.000000,,2013-04-06 11:52:00,
2013-04-06 06:01:00,35.0,27.0,-100.00,SE,136,2.0,9.0,71,0.00,,,0.14,0.000000,,2013-04-06 12:01:00,
2013-04-06 06:33:00,35.0,27.0,-100.00,SW,219,2.0,10.0,71,0.00,,,0.09,0.000000,,2013-04-06 12:33:00,
2013-04-06 06:44:00,35.0,27.0,-100.00,SW,219,2.0,10.0,71,0.00,,,0.09,0.000000,,2013-04-06 12:44:00,
2013-04-06 06:52:00,35.0,27.0,-100.00,SW,219,2.0,10.0,71,0.00,,,0.09,0.000000,,2013-04-06 12:52:00,
2013-04-06 07:02:00,35.0,27.0,-100.00,SW,219,2.0,10.0,71,0.00,,,0.09,0.000000,,2013-04-06 13:02:00,
2013-04-06 07:03:00,35.0,26.0,-100.00,SW,226,3.0,8.0,70,0.00,,,-99.99,0.000000,,2013-04-06 13:03:00,
2013-04-06 07:32:00,35.0,26.0,-100.00,SW,226,3.0,8.0,70,0.00,,,-99.99,0.000000,,2013-04-06 13:32:00,
2013-04-06 07:43:00,35.0,26.0,-100.00,SW,226,3.0,8.0,70,0.00,,,-99.99,0.000000,,2013-04-06 13:43:00,
2013-04-06 07:53:00,35.0,26.0,-100.00,SW,226,3.0,8.0,70,0.00,,,-99.99,0.000000,,2013-04-06 13:53:00,
2013-04-06 08:23:00,36.0,27.0,-100.00,WSW,243,2.0,9.0,69,0.00,,,0.08,19.000000,,2013-04-06 14:23:00,
2013-04-06 08:33:00,36.0,27.0,-100.00,WSW,243,2.0,9.0,69,0.00,,,0.08,19.000000,,2013-04-06 14:33:00,
2013-04-06 08:43:00,36.0,27.0,-100.00,WSW,243,2.0,9.0,69,0.00,,,0.08,19.000000,,2013-04-06 14:43:00,
2013-04-06 08:52:00,36.0,27.0,-100.00,WSW,243,2.0,9.0,69,0.00,,,0.08,19.000000,,2013-04-06 14:52:00,
2013-04-06 09:01:00,36.0,27.0,-100.00,WSW,243,2.0,9.0,69,0.00,,,0.08,19.000000,,2013-04-06 15:01:00,
2013-04-06 09:03:00,36.0,27.0,-100.00,SSW,203,1.0,10.0,69,0.00,,,0.07,70.000000,,2013-04-06 15:03:00,
2013-04-06 09:33:00,36.0,27.0,-100.00,SSW,203,1.0,10.0,69,0.00,,,0.07,70.000000,,2013-04-06 15:33:00,
2013-04-06 09:43:00,36.0,27.0,-100.00,SSW,203,1.0,10.0,69,0.00,,,0.07,70.000000,,2013-04-06 15:43:00,
2013-04-06 09:53:00,36.0,27.0,-100.00,SSW,203,1.0,10.0,69,0.00,,,0.07,70.000000,,2013-04-06 15:53:00,
2013-04-06 10:33:00,32.0,31.0,-100.00,SW,227,2.0,7.0,95,0.00,,,0.07,61.000000,,2013-04-06 16:33:00,
2013-04-06 10:43:00,32.0,31.0,-100.00,SW,227,2.0,7.0,95,0.00,,,0.07,61.000000,,2013-04-06 16:43:00,
2013-04-06 10:53:00,32.0,31.0,-100.00,SW,227,2.0,7.0,95,0.00,,,0.07,61.000000,,2013-04-06 16:53:00,
2013-04-06 11:02:00,32.0,31.0,-100.00,SW,227,2.0,7.0,95,0.00,,,0.07,61.000000,,2013-04-06 17:02:00,
2013-04-06 11:33:00,36.0,34.0,-100.00,SSW,213,2.0,8.0,91,0.00,,,0.06,101.000000,,2013-04-06 17:33:00,
2013-04-06 11:43:00,36.0,34.0,-100.00,SSW,213,2.0,8.0,91,0.00,,,0.06,101.000000,,2013-04-06 17:43:00,
2013-04-06 11:52:00,36.0,34.0,-100.00,SSW,213,2.0,8.0,91,0.00,,,0.06,101.000000,,2013-04-06 17:52:00,
2013-04-06 12:02:00,36.0,34.0,-100.00,SSW,213,2.0,8.0,91,0.00,,,0.06,101.000000,,2013-04-06 18:02:00,
2013-04-06 12:24:00,41.0,35.0,-100.00,SW,220,3.0,10.0,80,0.07,,,0.13,404.000000,,2013-04-06 18:24:00,
2013-04-06 12:32:00,41.0,35.0,-100.00,SW,220,3.0,10.0,80,0.07,,,0.13,404.000000,,2013-04-06 18:32:00,
2013-04-06 12:42:00,41.0,35.0,-100.00,SW,220,3.0,10.0,80,0.07,,,0.13,404.000000,,2013-04-06 18:42:00,
2013-04-06 12:52:00,41.0,35.0,-100.00,SW,220,3.0,10.0,80,0.07,,,0.13,404.000000,,2013-04-06 18:52:00,
2013-04-06 13:02:00,41.0,35.0,-100.00,SW,220,3.0,10.0,80,0.07,,,0.13,404.000000,,2013-04-06 19:02:00,
2013-04-06 13:33:00,38.0,35.0,-100.00,WSW,237,2.0,10.0,90,0.02,,,0.15,206.000000,,2013-04-06 19:33:00,
2013-04-06 13:42:00,38.0,35.0,-100.00,WSW,237,2.0,10.0,90,0.02,,,0.15,206.000000,,2013-04-06 19:42:00,
2013-04-06 13:53:00,38.0,35.0,-100.00,WSW,237,2.0,10.0,90,0.02,,,0.15,206.000000,,2013-04-06 19:53:00,
2013-04-06 14:02:00,38.0,35.0,-100.00,WSW,237,2.0,10.0,90,0.02,,,0.15,206.000000,,2013-04-06 20:02:00,
2013-04-06 14:32:00,40.0,37.0,-100.00,WSW,248,1.0,7.0,89,0.01,,,0.16,211.000000,,2013-04-06 20:32:00,
2013-04-06 14:42:00,40.0,37.0,-100.00,WSW,248,1.0,7.0,89,0.01,,,0.16,211.000000,,2013-04-06 20:42:00,
2013-04-06 14:52:00,40.0,37.0,-100.00,WSW,248,1.0,7.0,89,0.01,,,0.16,211.000000,,2013-04-06 20:52:00,
2013-04-06 15:02:00,40.0,37.0,-100.00,WSW,248,1.0,7.0,89,0.01,,,0.16,211.000000,,2013-04-06 21:02:00,
2013-04-06 15:33:00,38.0,35.0,-100.00,SW,229,3.0,9.0,88,0.01,,,0.17,202.000000,,2013-04-06 21:33:00,
2013-04-06 15:43:00,38.0,35.0,-100.00,SW,229,3.0,9.0,88,0.01,,,0.17,202.000000,,2013-04-06 21:43:00,
2013-04-06 15:52:00,38.0,35.0,-100.00,SW,229,3.0,9.0,88,0.01,,,0.17,202.000000,,2013-04-06 21:52:00,
2013-04-06 16:02:00,38.0,35.0,-100.00,SW,229,3.0,9.0,88,0.01,,,0.17,202.000000,,2013-04-06 22:02:00,
2013-04-06 16:23:00,35.0,34.0,-100.00,WSW,250,1.0,6.0,95,0.00,,,0.12,59.000000,,2013-04-06 22:23:00,
2013-04-06 16:35:00,35.0,34.0,-100.00,WSW,250,1.0,6.0,95,0.00,,,0.12,59.000000,,2013-04-06 22:35:00,
2013-04-06 16:53:00,35.0,34.0,-100.00,WSW,250,1.0,6.0,95,0.00,,,0.12,59.000000,,2013-04-06 22:53:00,
2013-04-06 17:02:00,35.0,34.0,-100.00,WSW,250,1.0,6.0,95,0.00,,,0.12,59.000000,,2013-04-06 23:02:00,
2013-04-06 17:23:00,40.0,35.0,-100.00,SW,236,4.0,14.0,83,0.00,,,0.11,165.000000,,2013-04-06 23:23:00,
2013-04-06 17:34:00,40.0,35.0,-100.00,SW,236,4.0,14.0,83,0.00,,,0.11,165.000000,,2013-04-06 23:34:00,
2013-04-06 17:43:00,40.0,35.0,-100.00,SW,236,4.0,14.0,83,0.00,,,0.11,165.000000,,2013-04-06 23:43:00,
2013-04-06 17:53:00,40.0,35.0,-100.00,SW,236,4.0,14.0,83,0.00,,,0.11,165.000000,,2013-04-06 23:53:00,
2013-04-06 18:02:00,40.0,35.0,-100.00,SW,236,4.0,14.0,83,0.00,,,0.11,165.000000,,2013-04-07 00:02:00,
2013-04-06 18:33:00,40.0,34.0,-100.00,SW,223,3.0,12.0,79,0.00,,,0.11,123.000000,,2013-04-07 00:33:00,
2013-04-06 18:43:00,40.0,34.0,-100.00,SW,223,3.0,12.0,79,0.00,,,0.11,123.000000,,2013-04-07 00:43:00,
2013-04-06 18:53:00,40.0,34.0,-100.00,SW,223,3.0,12.0,79,0.00,,,0.11,123.000000,,2013-04-07 00:53:00,
2013-04-06 19:02:00,40.0,34.0,-100.00,SW,223,3.0,12.0,79,0.00,,,0.11,123.000000,,2013-04-07 01:02:00,
2013-04-06 19:24:00,39.0,34.0,-100.00,SSW,207,3.0,10.0,81,0.00,,,-99.99,57.000000,,2013-04-07 01:24:00,
2013-04-06 19:33:00,39.0,34.0,-100.00,SSW,207,3.0,10.0,81,0.00,,,-99.99,57.000000,,2013-04-07 01:33:00,
2013-04-06 19:43:00,39.0,34.0,-100.00,SSW,207,3.0,10.0,81,0.00,,,-99.99,57.000000,,2013-04-07 01:43:00,
2013-04-06 19:53:00,39.0,34.0,-100.00,SSW,207,3.0,10.0,81,0.00,,,-99.99,57.000000,,2013-04-07 01:53:00,
2013-04-06 20:02:00,39.0,34.0,-100.00,SSW,207,3.0,10.0,81,0.00,,,-99.99,57.000000,,2013-04-07 02:02:00,
2013-04-06 20:24:00,35.0,34.0,-100.00,SSW,208,3.0,17.0,95,0.01,,,0.12,16.000000,,2013-04-07 02:24:00,
2013-04-06 20:33:00,35.0,34.0,-100.00,SSW,208,3.0,17.0,95,0.01,,,0.12,16.000000,,2013-04-07 02:33:00,
2013-04-06 20:43:00,35.0,34.0,-100.00,SSW,208,3.0,17.0,95,0.01,,,0.12,16.000000,,2013-04-07 02:43:00,
2013-04-06 20:52:00,35.0,34.0,-100.00,SSW,208,3.0,17.0,95,0.01,,,0.12,16.000000,,2013-04-07 02:52:00,
2013-04-06 21:02:00,35.0,34.0,-100.00,SSW,208,3.0,17.0,95,0.01,,,0.12,16.000000,,2013-04-07 03:02:00,
2013-04-06 21:22:00,35.0,33.0,-100.00,SW,219,2.0,10.0,91,0.00,,,0.12,0.000000,,2013-04-07 03:22:00,
2013-04-06 21:35:00,35.0,33.0,-100.00,SW,219,2.0,10.0,91,0.00,,,0.12,0.000000,,2013-04-07 03:35:00,
2013-04-06 21:44:00,35.0,33.0,-100.00,SW,219,2.0,10.0,91,0.00,,,0.12,0.000000,,2013-04-07 03:44:00,
2013-04-06 22:02:00,35.0,33.0,-100.00,SW,219,2.0,10.0,91,0.00,,,0.12,0.000000,,2013-04-07 04:02:00,
2013-04-06 22:32:00,36.0,32.0,-100.00,SW,231,3.0,11.0,86,0.00,,,0.12,0.000000,,2013-04-07 04:32:00,
2013-04-06 22:43:00,36.0,32.0,-100.00,SW,231,3.0,11.0,86,0.00,,,0.12,0.000000,,2013-04-07 04:43:00,
2013-04-06 22:53:00,36.0,32.0,-100.00,SW,231,3.0,11.0,86,0.00,,,0.12,0.000000,,2013-04-07 04:53:00,
2013-04-06 23:02:00,36.0,32.0,-100.00,SW,231,3.0,11.0,86,0.00,,,0.12,0.000000,,2013-04-07 05:02:00,
2013-04-06 23:23:00,35.0,32.0,-100.00,SW,226,2.0,9.0,89,0.00,,,0.12,0.000000,,2013-04-07 05:23:00,
2013-04-06 23:34:00,35.0,32.0,-100.00,SW,226,2.0,9.0,89,0.00,,,0.12,0.000000,,2013-04-07 05:34:00,
2013-04-06 23:43:00,35.0,32.0,-100.00,SW,226,2.0,9.0,89,0.00,,,0.12,0.000000,,2013-04-07 05:43:00,
2013-04-06 23:52:00,35.0,32.0,-100.00,SW,226,2.0,9.0,89,0.00,,,0.12,0.000000,,2013-04-07 05:52:00,